Time;durP1;ratioP1;P1;durP2;ratioP2;P2;SDS_P1;SDS_P2;PMS_P1;PMS_P2;Temp;Humidity;BMP_temperature;BMP_pressure;BME280_temperature;BME280_humidity;BME280_pressure;Samples;Min_cycle;Max_cycle;Signal;HPM_P1;HPM_P2
2023/03/23 00:01:49;;;;;;;11.90;8.63;;;10.30;99.90;;;;;;5043456;28;20417;-63
2023/03/23 00:04:16;;;;;;;10.23;8.10;;;10.30;99.90;;;;;;5029832;28;20060;-63
2023/03/23 00:06:44;;;;;;;10.65;6.95;;;10.30;99.90;;;;;;5045459;28;20098;-63
2023/03/23 00:09:12;;;;;;;10.32;7.47;;;10.30;99.90;;;;;;5041023;28;20120;-62
2023/03/23 00:11:39;;;;;;;9.65;7.78;;;10.30;99.90;;;;;;5048915;28;20101;-63
2023/03/23 00:14:05;;;;;;;10.93;8.55;;;10.30;99.90;;;;;;5027068;28;20037;-62
2023/03/23 00:16:33;;;;;;;15.38;9.65;;;10.30;99.90;;;;;;5030077;28;20029;-62
2023/03/23 00:19:15;;;;;;;14.77;11.57;;;10.30;99.90;;;;;;5051087;28;20044;-63
2023/03/23 00:21:43;;;;;;;15.38;12.02;;;10.40;99.90;;;;;;5044930;28;20077;-62
2023/03/23 00:24:15;;;;;;;18.80;14.95;;;10.40;99.90;;;;;;5039841;28;20090;-63
2023/03/23 00:26:43;;;;;;;22.55;16.67;;;10.40;99.90;;;;;;5052141;28;20040;-62
2023/03/23 00:29:21;;;;;;;23.42;17.85;;;10.40;99.90;;;;;;5049497;28;20088;-63
2023/03/23 00:31:48;;;;;;;22.25;18.17;;;10.40;99.90;;;;;;5052730;28;20350;-62
2023/03/23 00:34:19;;;;;;;26.92;20.15;;;10.40;99.90;;;;;;5017362;28;20138;-63
2023/03/23 00:36:50;;;;;;;26.27;19.00;;;10.40;99.90;;;;;;5041861;28;20052;-64
2023/03/23 00:39:17;;;;;;;25.95;17.58;;;10.40;99.90;;;;;;5047614;28;20053;-63
2023/03/23 00:41:44;;;;;;;22.83;17.13;;;10.50;99.90;;;;;;5050403;28;20372;-63
2023/03/23 00:44:10;;;;;;;22.73;16.42;;;10.50;99.90;;;;;;5032571;28;20040;-63
2023/03/23 00:46:44;;;;;;;26.52;17.15;;;10.50;99.90;;;;;;5016113;28;20104;-62
2023/03/23 00:49:12;;;;;;;19.52;12.55;;;10.40;99.90;;;;;;5019939;28;20058;-63
2023/03/23 00:51:39;;;;;;;15.00;11.57;;;10.50;99.90;;;;;;5046966;28;20040;-62
2023/03/23 00:54:05;;;;;;;14.65;9.50;;;10.40;99.90;;;;;;5047534;28;20111;-63
2023/03/23 00:56:30;;;;;;;9.95;8.13;;;10.40;99.90;;;;;;5047666;28;20057;-62
2023/03/23 00:58:56;;;;;;;10.15;7.03;;;10.40;99.90;;;;;;5038591;28;20049;-63
2023/03/23 01:01:22;;;;;;;10.68;6.68;;;10.40;99.90;;;;;;5030345;28;20041;-62
2023/03/23 01:03:49;;;;;;;9.10;6.35;;;10.40;99.90;;;;;;5049369;28;20080;-63
2023/03/23 01:06:15;;;;;;;8.50;6.70;;;10.40;99.90;;;;;;5046998;28;20048;-63
2023/03/23 01:08:45;;;;;;;8.88;7.13;;;10.40;99.90;;;;;;5042679;28;20041;-62
2023/03/23 01:11:14;;;;;;;11.32;6.90;;;10.40;99.90;;;;;;5047685;28;20041;-62
2023/03/23 01:13:41;;;;;;;11.00;8.00;;;10.40;99.90;;;;;;5053305;28;20177;-62
2023/03/23 01:16:08;;;;;;;10.45;8.52;;;10.40;99.90;;;;;;5015595;28;20036;-62
2023/03/23 01:18:34;;;;;;;13.43;8.75;;;10.40;99.90;;;;;;5033758;28;20080;-62
2023/03/23 01:21:12;;;;;;;11.77;9.60;;;10.50;99.90;;;;;;5043023;28;20648;-62
2023/03/23 01:23:39;;;;;;;13.55;9.63;;;10.50;99.90;;;;;;5029331;28;20057;-63
2023/03/23 01:26:07;;;;;;;12.48;9.88;;;10.50;99.90;;;;;;5049647;28;20119;-63
2023/03/23 01:28:34;;;;;;;11.40;9.48;;;10.60;99.90;;;;;;5049376;28;20452;-63
2023/03/23 01:31:06;;;;;;;15.32;9.60;;;10.60;99.90;;;;;;5050952;28;20402;-63
2023/03/23 01:33:32;;;;;;;12.98;9.18;;;10.70;99.90;;;;;;5054301;28;20041;-63
2023/03/23 01:36:03;;;;;;;15.20;10.63;;;10.70;99.90;;;;;;5031889;28;20274;-63
2023/03/23 01:38:29;;;;;;;15.63;9.32;;;10.70;99.90;;;;;;5032405;28;20041;-63
2023/03/23 01:40:56;;;;;;;14.13;10.20;;;10.70;99.90;;;;;;5048299;28;20048;-63
2023/03/23 01:43:22;;;;;;;15.52;9.82;;;10.70;99.90;;;;;;5033739;28;20076;-63
2023/03/23 01:45:47;;;;;;;13.98;9.25;;;10.70;99.90;;;;;;5049480;28;20491;-63
2023/03/23 01:48:36;;;;;;;15.98;9.57;;;10.80;99.90;;;;;;5058098;28;20451;-63
2023/03/23 01:51:11;;;;;;;14.25;8.80;;;10.70;99.90;;;;;;5045911;28;20040;-62
2023/03/23 01:53:48;;;;;;;10.20;8.32;;;10.70;99.90;;;;;;5048731;28;20380;-62
2023/03/23 01:56:18;;;;;;;11.27;7.72;;;10.80;99.90;;;;;;5030709;28;20048;-62
2023/03/23 01:58:45;;;;;;;13.23;7.45;;;10.80;99.90;;;;;;5045885;28;20173;-63
2023/03/23 02:01:14;;;;;;;9.55;7.28;;;10.90;99.90;;;;;;5035398;28;20576;-63
2023/03/23 02:03:45;;;;;;;16.77;7.20;;;10.90;99.90;;;;;;5044790;28;20040;-63
2023/03/23 02:06:11;;;;;;;8.48;6.13;;;11.00;99.90;;;;;;5047603;28;20038;-63
2023/03/23 02:08:38;;;;;;;9.32;6.15;;;11.00;99.90;;;;;;5022397;28;20033;-62
2023/03/23 02:11:19;;;;;;;8.10;6.57;;;11.00;99.90;;;;;;5024925;28;20331;-62
2023/03/23 02:13:46;;;;;;;10.35;6.60;;;11.00;99.90;;;;;;5047714;28;20041;-63
2023/03/23 02:16:42;;;;;;;11.77;5.85;;;11.10;99.90;;;;;;5046567;28;20067;-62
2023/03/23 02:19:41;;;;;;;14.48;6.20;;;11.10;99.90;;;;;;5039855;28;20033;-63
2023/03/23 02:22:33;;;;;;;9.48;5.43;;;11.10;99.90;;;;;;5044090;28;20049;-62
2023/03/23 02:25:18;;;;;;;11.73;5.75;;;11.10;99.90;;;;;;5041392;28;20041;-63
2023/03/23 02:28:09;;;;;;;10.13;5.68;;;11.10;99.90;;;;;;5040587;28;20044;-62
2023/03/23 02:31:05;;;;;;;8.25;5.30;;;11.10;99.90;;;;;;5044013;28;20028;-62
2023/03/23 02:33:45;;;;;;;7.38;5.55;;;11.10;99.90;;;;;;5044152;28;20046;-63
2023/03/23 02:36:32;;;;;;;10.88;5.28;;;11.10;99.90;;;;;;5042680;28;20036;-62
2023/03/23 02:39:08;;;;;;;7.22;4.97;;;11.10;99.90;;;;;;5039074;28;20421;-63
2023/03/23 02:41:45;;;;;;;10.40;5.43;;;11.20;99.90;;;;;;5026243;28;20049;-63
2023/03/23 02:44:13;;;;;;;9.15;5.40;;;11.10;99.90;;;;;;5048767;28;20118;-63
2023/03/23 02:46:40;;;;;;;11.20;4.88;;;11.20;99.90;;;;;;5033510;28;20049;-62
2023/03/23 02:49:08;;;;;;;8.80;4.38;;;11.20;99.90;;;;;;5047414;28;20108;-63
2023/03/23 02:51:36;;;;;;;8.38;5.30;;;11.20;99.90;;;;;;5043639;28;20132;-63
2023/03/23 02:54:04;;;;;;;9.52;4.75;;;11.20;99.90;;;;;;5044162;28;20045;-63
2023/03/23 02:56:32;;;;;;;8.77;4.38;;;11.10;99.90;;;;;;5043772;28;20056;-63
2023/03/23 02:58:58;;;;;;;6.53;4.60;;;11.20;99.90;;;;;;5027358;28;20116;-63
2023/03/23 03:01:33;;;;;;;8.98;4.88;;;11.10;99.90;;;;;;5042132;28;20171;-63
2023/03/23 03:04:03;;;;;;;8.82;4.82;;;11.10;99.90;;;;;;5045202;28;20111;-63
2023/03/23 03:06:44;;;;;;;7.38;5.43;;;11.10;99.90;;;;;;5023837;28;20163;-63
2023/03/23 03:09:29;;;;;;;6.50;4.72;;;11.10;99.90;;;;;;5047775;28;20200;-62
2023/03/23 03:12:04;;;;;;;11.32;5.10;;;11.10;99.90;;;;;;5046295;28;20510;-63
2023/03/23 03:14:38;;;;;;;7.85;5.78;;;11.10;99.90;;;;;;5042520;28;20099;-62
2023/03/23 03:17:25;;;;;;;7.82;5.10;;;11.10;99.90;;;;;;5022301;28;20141;-63
2023/03/23 03:20:10;;;;;;;8.30;4.68;;;11.10;99.90;;;;;;5046301;28;20407;-63
2023/03/23 03:22:41;;;;;;;9.85;4.55;;;11.10;99.90;;;;;;5049225;28;20162;-63
2023/03/23 03:25:09;;;;;;;9.50;4.88;;;11.10;99.90;;;;;;5041691;28;20041;-63
2023/03/23 03:27:35;;;;;;;8.85;4.45;;;11.10;99.90;;;;;;5020559;28;20072;-62
2023/03/23 03:30:04;;;;;;;9.18;4.00;;;11.00;99.90;;;;;;5041323;28;20068;-63
2023/03/23 03:32:53;;;;;;;10.77;4.40;;;11.00;99.90;;;;;;5050603;28;20478;-62
2023/03/23 03:35:23;;;;;;;9.57;4.63;;;11.00;99.90;;;;;;5051978;28;20036;-63
2023/03/23 03:37:50;;;;;;;12.32;4.97;;;10.90;99.90;;;;;;5040402;28;20058;-63
2023/03/23 03:40:19;;;;;;;7.10;3.67;;;10.90;99.90;;;;;;5031471;28;20052;-62
2023/03/23 03:42:45;;;;;;;12.93;3.92;;;10.90;99.90;;;;;;5030112;28;20525;-63
2023/03/23 03:45:15;;;;;;;6.28;3.78;;;10.80;99.90;;;;;;5016714;28;20172;-63
2023/03/23 03:47:41;;;;;;;11.25;4.97;;;10.80;99.90;;;;;;5050964;28;20045;-63
2023/03/23 03:50:11;;;;;;;7.63;4.95;;;10.80;99.90;;;;;;5028055;28;20045;-63
2023/03/23 03:52:38;;;;;;;8.20;5.63;;;10.70;99.90;;;;;;5018123;28;20045;-63
2023/03/23 03:55:06;;;;;;;9.00;4.70;;;10.70;99.90;;;;;;5017900;28;20056;-62
2023/03/23 03:57:33;;;;;;;8.20;5.13;;;10.70;99.90;;;;;;5037104;28;20037;-63
2023/03/23 03:59:59;;;;;;;7.28;4.15;;;10.70;99.90;;;;;;5053522;28;20140;-62
2023/03/23 04:02:24;;;;;;;7.38;4.03;;;10.70;99.90;;;;;;5050614;28;20102;-63
2023/03/23 04:04:53;;;;;;;9.43;4.90;;;10.60;99.90;;;;;;5052477;28;20037;-62
2023/03/23 04:07:21;;;;;;;6.70;3.97;;;10.60;99.90;;;;;;5051698;28;20065;-62
2023/03/23 04:09:47;;;;;;;5.55;3.83;;;10.60;99.90;;;;;;5033041;28;20507;-63
2023/03/23 04:12:16;;;;;;;8.45;4.68;;;10.60;99.90;;;;;;5050907;28;20048;-62
2023/03/23 04:14:42;;;;;;;10.30;4.40;;;10.60;99.90;;;;;;5033201;28;20618;-63
2023/03/23 04:17:09;;;;;;;8.63;4.10;;;10.50;99.90;;;;;;5051094;28;20059;-62
2023/03/23 04:19:37;;;;;;;7.55;3.97;;;10.50;99.90;;;;;;5048644;28;20044;-62
2023/03/23 04:22:04;;;;;;;10.40;3.65;;;10.50;99.90;;;;;;5032751;28;20446;-62
2023/03/23 04:24:33;;;;;;;5.40;3.30;;;10.50;99.90;;;;;;5034909;28;20454;-62
2023/03/23 04:26:59;;;;;;;12.00;3.15;;;10.50;99.90;;;;;;5046102;28;20076;-63
2023/03/23 04:29:26;;;;;;;10.35;3.20;;;10.50;99.90;;;;;;5030723;28;20048;-63
2023/03/23 04:31:52;;;;;;;10.25;3.58;;;10.40;99.90;;;;;;5054303;28;20109;-62
2023/03/23 04:34:18;;;;;;;9.95;3.10;;;10.40;99.90;;;;;;5049024;28;20540;-62
2023/03/23 04:36:46;;;;;;;6.07;3.42;;;10.40;99.90;;;;;;5048862;28;20044;-62
2023/03/23 04:39:13;;;;;;;12.18;3.33;;;10.40;99.90;;;;;;5049220;28;20053;-62
2023/03/23 04:41:40;;;;;;;10.40;4.18;;;10.30;99.90;;;;;;5030320;28;20040;-62
2023/03/23 04:44:06;;;;;;;9.27;4.25;;;10.30;99.90;;;;;;5045468;28;20038;-63
2023/03/23 04:46:33;;;;;;;7.68;3.45;;;10.40;99.90;;;;;;5050865;28;20110;-62
2023/03/23 04:48:59;;;;;;;12.63;4.78;;;10.40;99.90;;;;;;5046661;28;20037;-63
2023/03/23 04:51:26;;;;;;;10.02;4.10;;;10.40;99.90;;;;;;5051248;28;20198;-63
2023/03/23 04:53:53;;;;;;;9.93;4.38;;;10.40;99.90;;;;;;5035292;28;20037;-62
2023/03/23 04:56:19;;;;;;;7.18;3.35;;;10.40;99.90;;;;;;5040348;28;20041;-63
2023/03/23 04:58:46;;;;;;;8.63;3.83;;;10.40;99.90;;;;;;5048820;28;20040;-63
2023/03/23 05:01:15;;;;;;;12.13;4.65;;;10.40;99.90;;;;;;5050199;28;20160;-62
2023/03/23 05:03:41;;;;;;;12.93;4.05;;;10.40;99.90;;;;;;5048893;28;20506;-62
2023/03/23 05:06:07;;;;;;;8.85;4.43;;;10.40;99.90;;;;;;5049942;28;20124;-63
2023/03/23 05:08:33;;;;;;;13.77;3.80;;;10.40;99.90;;;;;;5049510;28;20242;-63
2023/03/23 05:11:00;;;;;;;13.60;6.00;;;10.40;99.90;;;;;;5052333;28;20040;-62
2023/03/23 05:13:29;;;;;;;15.48;4.10;;;10.30;99.90;;;;;;5047057;28;20037;-62
2023/03/23 05:15:55;;;;;;;16.08;5.03;;;10.30;99.90;;;;;;5049021;28;20071;-62
2023/03/23 05:18:21;;;;;;;9.45;3.88;;;10.30;99.90;;;;;;5021160;28;20443;-62
2023/03/23 05:20:48;;;;;;;17.80;5.35;;;10.30;99.90;;;;;;5049910;28;20146;-63
2023/03/23 05:23:14;;;;;;;12.75;5.65;;;10.30;99.90;;;;;;5048967;28;20057;-62
2023/03/23 05:25:40;;;;;;;13.65;4.43;;;10.30;99.90;;;;;;5051628;28;20186;-62
2023/03/23 05:28:10;;;;;;;14.38;5.53;;;10.20;99.90;;;;;;5049762;28;20052;-62
2023/03/23 05:30:38;;;;;;;15.90;4.82;;;10.20;99.90;;;;;;5049662;28;20354;-62
2023/03/23 05:33:04;;;;;;;12.27;5.20;;;10.20;99.90;;;;;;5050986;28;20422;-62
2023/03/23 05:35:30;;;;;;;19.73;5.40;;;10.20;99.90;;;;;;5031352;28;20037;-62
2023/03/23 05:37:59;;;;;;;14.02;5.13;;;10.20;99.90;;;;;;5049525;28;20036;-62
2023/03/23 05:40:25;;;;;;;11.75;4.70;;;10.10;99.90;;;;;;5051233;28;20037;-63
2023/03/23 05:42:51;;;;;;;15.95;5.13;;;10.10;99.90;;;;;;5050087;28;20098;-62
2023/03/23 05:45:18;;;;;;;24.00;5.75;;;10.10;99.90;;;;;;5039517;28;20406;-62
2023/03/23 05:47:45;;;;;;;15.07;5.10;;;10.10;99.90;;;;;;5041644;28;20041;-63
2023/03/23 05:50:12;;;;;;;16.67;6.15;;;10.00;99.90;;;;;;5052214;28;20475;-62
2023/03/23 05:52:38;;;;;;;16.50;5.88;;;10.00;99.90;;;;;;5046915;28;20128;-63
2023/03/23 05:55:05;;;;;;;18.80;8.10;;;10.00;99.90;;;;;;5047425;28;20139;-62
2023/03/23 05:57:32;;;;;;;18.30;5.68;;;10.00;99.90;;;;;;5049468;28;20072;-63
2023/03/23 05:59:58;;;;;;;16.08;5.53;;;10.00;99.90;;;;;;5045761;28;20045;-62
2023/03/23 06:02:28;;;;;;;12.45;5.55;;;10.00;99.90;;;;;;5020842;28;20558;-62
2023/03/23 06:04:58;;;;;;;13.55;5.47;;;10.00;99.90;;;;;;5049818;28;20490;-63
2023/03/23 06:07:24;;;;;;;18.15;5.28;;;9.90;99.90;;;;;;5006607;28;20049;-62
2023/03/23 06:09:51;;;;;;;11.63;5.03;;;9.90;99.90;;;;;;5042812;28;20487;-62
2023/03/23 06:12:20;;;;;;;17.45;4.43;;;9.90;99.90;;;;;;5029086;28;20049;-63
2023/03/23 06:14:48;;;;;;;18.88;5.53;;;9.80;99.90;;;;;;5043243;28;20052;-62
2023/03/23 06:17:16;;;;;;;10.90;3.45;;;9.80;99.90;;;;;;5032324;28;20546;-64
2023/03/23 06:19:41;;;;;;;8.30;3.63;;;9.70;99.90;;;;;;5037012;28;20030;-63
2023/03/23 06:22:07;;;;;;;9.02;3.83;;;9.70;99.90;;;;;;5046502;28;20469;-62
2023/03/23 06:24:34;;;;;;;13.45;2.92;;;9.60;99.90;;;;;;5028586;28;20061;-62
2023/03/23 06:27:00;;;;;;;6.20;2.60;;;9.60;99.90;;;;;;5011181;28;20064;-63
2023/03/23 06:29:25;;;;;;;8.38;2.58;;;9.60;99.90;;;;;;5042457;28;20136;-62
2023/03/23 06:31:55;;;;;;;11.50;3.10;;;9.50;99.90;;;;;;5039290;28;20049;-62
2023/03/23 06:34:21;;;;;;;8.05;2.90;;;9.50;99.90;;;;;;5042875;28;20045;-62
2023/03/23 06:36:47;;;;;;;8.57;2.97;;;9.40;99.90;;;;;;5046345;28;20114;-62
2023/03/23 06:39:13;;;;;;;8.45;3.60;;;9.40;99.90;;;;;;5038046;28;20690;-63
2023/03/23 06:41:39;;;;;;;9.65;3.60;;;9.40;99.90;;;;;;5023165;28;20034;-62
2023/03/23 06:44:08;;;;;;;8.38;2.78;;;9.50;99.90;;;;;;5012875;28;20138;-63
2023/03/23 06:46:34;;;;;;;10.73;3.42;;;9.50;99.90;;;;;;5044747;28;20281;-63
2023/03/23 06:49:00;;;;;;;11.52;3.45;;;9.50;99.90;;;;;;5045517;28;20076;-62
2023/03/23 06:51:26;;;;;;;12.45;3.83;;;9.50;99.90;;;;;;5045528;28;20127;-63
2023/03/23 06:53:52;;;;;;;10.70;3.28;;;9.50;99.90;;;;;;5045783;28;20318;-62
2023/03/23 06:56:18;;;;;;;11.52;3.88;;;9.60;99.90;;;;;;5046325;28;20509;-63
2023/03/23 06:58:45;;;;;;;14.85;5.53;;;9.60;99.90;;;;;;5046025;28;20069;-62
2023/03/23 07:01:11;;;;;;;11.48;4.28;;;9.60;99.90;;;;;;5047816;28;20040;-62
2023/03/23 07:03:37;;;;;;;11.38;5.68;;;9.60;99.90;;;;;;5045004;28;20315;-62
2023/03/23 07:06:03;;;;;;;17.35;5.45;;;9.70;99.90;;;;;;5045550;28;20120;-63
2023/03/23 07:08:30;;;;;;;16.50;6.47;;;9.70;99.90;;;;;;5025608;28;20402;-62
2023/03/23 07:10:56;;;;;;;18.95;7.15;;;9.70;99.90;;;;;;5044000;28;20037;-62
2023/03/23 07:13:23;;;;;;;17.17;7.15;;;9.80;99.90;;;;;;5024576;28;20200;-63
2023/03/23 07:15:49;;;;;;;22.65;7.28;;;9.80;99.90;;;;;;5028522;28;20524;-62
2023/03/23 07:18:15;;;;;;;21.42;7.38;;;9.90;99.90;;;;;;5044799;28;20191;-63
2023/03/23 07:20:41;;;;;;;27.23;8.43;;;9.90;99.90;;;;;;5048673;28;20109;-62
2023/03/23 07:23:07;;;;;;;31.65;7.80;;;9.90;99.90;;;;;;5027834;28;20537;-63
2023/03/23 07:25:35;;;;;;;24.10;7.40;;;10.00;99.90;;;;;;5051959;28;20056;-63
2023/03/23 07:28:02;;;;;;;23.42;7.22;;;10.00;99.90;;;;;;5047902;28;20128;-63
2023/03/23 07:30:31;;;;;;;27.95;8.65;;;10.00;99.90;;;;;;5051993;28;20127;-62
2023/03/23 07:32:57;;;;;;;19.60;7.68;;;10.00;99.90;;;;;;5051616;28;20039;-62
2023/03/23 07:35:24;;;;;;;20.58;7.97;;;10.10;99.90;;;;;;5052327;28;20033;-62
2023/03/23 07:37:51;;;;;;;20.27;7.10;;;10.10;99.90;;;;;;5051130;28;20467;-62
2023/03/23 07:40:18;;;;;;;22.83;6.95;;;10.20;99.90;;;;;;5046593;28;20503;-63
2023/03/23 07:42:55;;;;;;;25.77;7.32;;;10.20;99.90;;;;;;5048911;28;20072;-62
2023/03/23 07:45:21;;;;;;;28.80;7.53;;;10.30;99.90;;;;;;5051058;28;20041;-63
2023/03/23 07:47:47;;;;;;;24.88;8.13;;;10.30;99.90;;;;;;5053764;28;20025;-62
2023/03/23 07:50:13;;;;;;;26.48;7.55;;;10.40;99.90;;;;;;5053178;28;20052;-62
2023/03/23 07:52:41;;;;;;;22.65;7.65;;;10.40;99.90;;;;;;5048990;28;20036;-62
2023/03/23 07:55:11;;;;;;;19.00;7.70;;;10.40;99.90;;;;;;5049942;28;20045;-63
2023/03/23 07:57:37;;;;;;;27.90;9.90;;;10.40;99.90;;;;;;5049467;28;20043;-63
2023/03/23 08:00:11;;;;;;;22.92;8.52;;;10.50;99.90;;;;;;5044698;28;20036;-62
2023/03/23 08:02:37;;;;;;;32.08;8.35;;;10.50;99.90;;;;;;5052937;28;20045;-62
2023/03/23 08:05:03;;;;;;;23.83;7.03;;;10.50;99.90;;;;;;5051338;28;20041;-62
2023/03/23 08:07:28;;;;;;;25.23;8.25;;;10.60;99.90;;;;;;5033804;28;20045;-63
2023/03/23 08:09:54;;;;;;;24.95;9.32;;;10.60;99.90;;;;;;5051608;28;20629;-62
2023/03/23 08:12:20;;;;;;;28.27;8.55;;;10.60;99.90;;;;;;5017396;28;20039;-63
2023/03/23 08:14:47;;;;;;;21.83;8.30;;;10.60;99.90;;;;;;5031012;28;20215;-62
2023/03/23 08:17:14;;;;;;;23.48;7.72;;;10.60;99.90;;;;;;5054258;28;20134;-62
2023/03/23 08:19:40;;;;;;;22.25;7.10;;;10.60;99.90;;;;;;5018044;28;20053;-62
2023/03/23 08:22:06;;;;;;;25.90;7.68;;;10.60;99.90;;;;;;5051334;28;20041;-63
2023/03/23 08:24:32;;;;;;;22.70;7.82;;;10.70;99.90;;;;;;5028575;28;20065;-63
2023/03/23 08:27:01;;;;;;;17.10;7.60;;;10.70;99.90;;;;;;5052111;28;20602;-64
2023/03/23 08:29:27;;;;;;;22.77;7.65;;;10.70;99.90;;;;;;5047810;28;20195;-64
2023/03/23 08:31:53;;;;;;;17.67;6.88;;;10.80;99.90;;;;;;5047539;28;20514;-62
2023/03/23 08:34:19;;;;;;;30.25;8.40;;;10.90;99.90;;;;;;5014586;28;20045;-62
2023/03/23 08:36:46;;;;;;;23.27;7.75;;;10.90;99.90;;;;;;5048294;28;20036;-63
2023/03/23 08:39:14;;;;;;;19.20;6.97;;;11.00;99.90;;;;;;5031070;28;20063;-63
2023/03/23 08:41:40;;;;;;;30.08;8.18;;;11.00;99.90;;;;;;5047238;28;20515;-62
2023/03/23 08:44:07;;;;;;;23.48;6.85;;;11.10;99.90;;;;;;5047992;28;20048;-62
2023/03/23 08:46:33;;;;;;;22.48;8.23;;;11.10;99.90;;;;;;5046487;28;20029;-62
2023/03/23 08:48:59;;;;;;;26.30;9.45;;;11.20;99.90;;;;;;5050525;28;20048;-62
2023/03/23 08:51:25;;;;;;;23.88;6.65;;;11.20;99.90;;;;;;5050437;28;20147;-63
2023/03/23 08:53:52;;;;;;;19.90;6.90;;;11.20;99.90;;;;;;5027131;28;20109;-62
2023/03/23 08:56:18;;;;;;;18.10;6.85;;;11.20;99.90;;;;;;5048024;28;20045;-63
2023/03/23 08:58:44;;;;;;;19.77;7.55;;;11.30;99.90;;;;;;5046884;28;20349;-63
2023/03/23 09:01:10;;;;;;;28.85;8.25;;;11.30;99.90;;;;;;5033064;28;20140;-62
2023/03/23 09:03:36;;;;;;;24.08;7.57;;;11.30;99.90;;;;;;5048237;28;20079;-63
2023/03/23 09:06:06;;;;;;;25.73;7.47;;;11.30;99.90;;;;;;5039128;28;20076;-65
2023/03/23 09:08:32;;;;;;;20.73;6.22;;;11.30;99.90;;;;;;5028681;28;20315;-63
2023/03/23 09:11:09;;;;;;;24.52;7.97;;;11.40;99.90;;;;;;5047745;28;20457;-62
2023/03/23 09:13:36;;;;;;;25.70;7.28;;;11.40;99.90;;;;;;5046568;28;20048;-63
2023/03/23 09:16:03;;;;;;;16.42;6.22;;;11.50;99.90;;;;;;5027972;28;20033;-63
2023/03/23 09:18:32;;;;;;;26.08;7.28;;;11.60;99.90;;;;;;5033781;28;20033;-62
2023/03/23 09:20:59;;;;;;;23.75;8.52;;;11.60;99.90;;;;;;5047177;28;20055;-62
2023/03/23 09:23:25;;;;;;;29.92;7.57;;;11.60;99.90;;;;;;5049537;28;20168;-63
2023/03/23 09:25:51;;;;;;;17.30;7.82;;;11.60;99.90;;;;;;5047254;28;20049;-62
2023/03/23 09:28:18;;;;;;;29.13;9.05;;;11.60;99.90;;;;;;5028993;28;20091;-62
2023/03/23 09:30:45;;;;;;;27.63;7.60;;;11.70;99.90;;;;;;5029224;28;20036;-63
2023/03/23 09:33:11;;;;;;;24.17;8.30;;;11.70;99.90;;;;;;5041074;28;20061;-62
2023/03/23 09:35:38;;;;;;;25.05;8.15;;;;;;;;;;5012232;28;20186;-63
2023/03/23 09:38:05;;;;;;;17.65;6.60;;;;;;;;;;5047832;28;20052;-63
2023/03/23 09:40:52;;;;;;;20.13;7.10;;;;;;;;;;5043889;28;20080;-63
2023/03/23 09:43:47;;;;;;;19.70;6.95;;;11.80;99.90;;;;;;5046047;28;20051;-62
2023/03/23 09:46:32;;;;;;;23.75;6.85;;;;;;;;;;5031294;28;20352;-63
2023/03/23 09:49:19;;;;;;;21.77;8.05;;;;;;;;;;5049064;28;20037;-63
2023/03/23 09:51:56;;;;;;;25.15;7.47;;;;;;;;;;5030860;28;20060;-62
2023/03/23 09:54:50;;;;;;;18.77;6.47;;;;;;;;;;5028783;28;20499;-63
2023/03/23 09:57:16;;;;;;;;;;;;;;;;;;5043493;28;20551;-63
2023/03/23 09:59:48;;;;;;;22.35;7.68;;;;;;;;;;5049677;28;20007;-63
2023/03/23 10:02:17;;;;;;;31.75;8.25;;;;;;;;;;5046884;28;20053;-63
2023/03/23 10:04:48;;;;;;;26.58;6.60;;;;;;;;;;5045980;28;20052;-63
2023/03/23 10:07:19;;;;;;;15.43;6.53;;;;;;;;;;5027138;28;20048;-63
2023/03/23 10:09:47;;;;;;;22.30;7.25;;;;;;;;;;5047419;28;20040;-63
2023/03/23 10:12:16;;;;;;;16.42;5.55;;;;;;;;;;5029122;28;20041;-62
2023/03/23 10:14:49;;;;;;;24.83;6.82;;;;;;;;;;5028271;28;20037;-63
2023/03/23 10:17:20;;;;;;;22.77;7.95;;;;;;;;;;5044340;28;20041;-63
2023/03/23 10:19:46;;;;;;;21.60;6.13;;;;;;;;;;5028514;28;20037;-62
2023/03/23 10:22:14;;;;;;;20.25;6.15;;;;;;;;;;5048149;28;20107;-63
2023/03/23 10:24:47;;;;;;;22.15;6.88;;;;;;;;;;5046296;28;20537;-63
2023/03/23 10:27:34;;;;;;;20.10;6.82;;;;;;;;;;5044772;28;20048;-62
2023/03/23 10:30:23;;;;;;;21.27;5.82;;;;;;;;;;5048200;28;20052;-63
2023/03/23 10:32:53;;;;;;;18.50;7.60;;;;;;;;;;5032921;28;20143;-63
2023/03/23 10:35:23;;;;;;;20.85;6.20;;;;;;;;;;5043767;28;20051;-63
2023/03/23 10:37:52;;;;;;;24.15;7.03;;;;;;;;;;5046515;28;20036;-63
2023/03/23 10:40:23;;;;;;;17.77;6.18;;;12.00;99.90;;;;;;5047350;28;20519;-63
2023/03/23 10:42:49;;;;;;;16.60;5.78;;;12.60;99.90;;;;;;5027916;28;20041;-63
2023/03/23 10:45:18;;;;;;;23.95;6.75;;;12.70;99.90;;;;;;5045065;28;20045;-63
2023/03/23 10:47:56;;;;;;;22.55;6.72;;;12.70;99.90;;;;;;5043932;28;20045;-63
2023/03/23 10:50:32;;;;;;;21.92;6.45;;;12.70;99.90;;;;;;5031440;28;20539;-63
2023/03/23 10:52:59;;;;;;;20.25;6.10;;;12.70;99.90;;;;;;5039627;28;20076;-63
2023/03/23 10:55:40;;;;;;;12.77;6.07;;;12.70;99.90;;;;;;5045183;28;20438;-63
2023/03/23 10:58:31;;;;;;;15.27;6.72;;;12.70;99.90;;;;;;5030957;28;20037;-63
2023/03/23 11:01:00;;;;;;;19.65;7.35;;;12.80;99.90;;;;;;5040709;28;20056;-62
2023/03/23 11:03:40;;;;;;;15.57;5.25;;;12.80;99.90;;;;;;5023385;28;20045;-63
2023/03/23 11:06:10;;;;;;;26.25;5.57;;;12.90;99.90;;;;;;5035876;28;20558;-63
2023/03/23 11:08:38;;;;;;;15.70;5.28;;;;;;;;;;5045298;28;20044;-62
2023/03/23 11:11:15;;;;;;;21.83;5.80;;;;;;;;;;5045912;28;20040;-63
2023/03/23 11:13:46;;;;;;;18.00;7.70;;;;;;;;;;5030731;28;20049;-63
2023/03/23 11:16:25;;;;;;;21.77;6.10;;;;;;;;;;5023308;28;20063;-63
2023/03/23 11:18:52;;;;;;;22.42;7.22;;;;;;;;;;5047228;28;20047;-63
2023/03/23 11:21:20;;;;;;;15.20;4.47;;;;;;;;;;5027923;28;20545;-62
2023/03/23 11:23:58;;;;;;;14.50;4.55;;;;;;;;;;5035663;28;20136;-63
2023/03/23 11:26:33;;;;;;;13.45;5.00;;;;;;;;;;5028440;28;20045;-63
2023/03/23 11:29:03;;;;;;;10.35;4.35;;;;;;;;;;5044930;28;20328;-63
2023/03/23 11:31:37;;;;;;;18.10;5.55;;;;;;;;;;5045766;28;20444;-63
2023/03/23 11:34:04;;;;;;;13.70;5.10;;;;;;;;;;5023641;28;20057;-63
2023/03/23 11:36:35;;;;;;;13.52;4.80;;;;;;;;;;5017948;28;20044;-63
2023/03/23 11:39:05;;;;;;;11.75;5.18;;;;;;;;;;5044347;28;20033;-62
2023/03/23 11:41:33;;;;;;;17.40;4.53;;;;;;;;;;5017514;28;20055;-63
2023/03/23 11:44:03;;;;;;;15.95;4.38;;;;;;;;;;5046524;28;20044;-63
2023/03/23 11:46:41;;;;;;;15.95;4.53;;;;;;;;;;5044471;28;20674;-63
2023/03/23 11:49:30;;;;;;;12.25;4.35;;;;;;;;;;5043472;28;20568;-63
2023/03/23 11:52:03;;;;;;;13.80;5.30;;;;;;;;;;5044026;28;20041;-63
2023/03/23 11:54:35;;;;;;;17.42;5.10;;;;;;;;;;5044121;28;20051;-63
2023/03/23 11:57:01;;;;;;;11.20;4.50;;;;;;;;;;5048484;28;20064;-63
2023/03/23 11:59:30;;;;;;;13.05;5.05;;;;;;;;;;5011750;28;20043;-63
2023/03/23 12:01:56;;;;;;;19.33;4.82;;;;;;;;;;5044359;28;20132;-63
2023/03/23 12:04:26;;;;;;;16.45;5.07;;;;;;;;;;5045020;28;20048;-63
2023/03/23 12:07:03;;;;;;;18.52;4.93;;;;;;;;;;5021846;28;20692;-63
2023/03/23 12:09:35;;;;;;;16.95;5.57;;;;;;;;;;5012694;28;20060;-63
2023/03/23 12:12:10;;;;;;;11.95;4.97;;;;;;;;;;5049295;28;20402;-63
2023/03/23 12:14:56;;;;;;;15.68;4.78;;;;;;;;;;5047417;28;20502;-63
2023/03/23 12:17:29;;;;;;;22.70;5.35;;;;;;;;;;5041307;28;20436;-63
2023/03/23 12:20:10;;;;;;;14.45;5.72;;;;;;;;;;5047525;28;20583;-63
2023/03/23 12:22:40;;;;;;;20.42;5.05;;;;;;;;;;5047504;28;20049;-63
2023/03/23 12:25:17;;;;;;;16.05;4.47;;;;;;;;;;5026910;28;20067;-63
2023/03/23 12:27:49;;;;;;;17.70;4.97;;;;;;;;;;5045239;28;20104;-63
2023/03/23 12:30:15;;;;;;;12.60;5.20;;;;;;;;;;5049730;28;20035;-63
2023/03/23 12:32:51;;;;;;;15.85;4.68;;;;;;;;;;5047399;28;20160;-63
2023/03/23 12:35:17;;;;;;;15.90;4.85;;;;;;;;;;5053077;28;20431;-63
2023/03/23 12:37:43;;;;;;;12.88;4.25;;;;;;;;;;5032454;28;20133;-63
2023/03/23 12:40:28;;;;;;;20.48;4.45;;;;;;;;;;5031461;28;20036;-63
2023/03/23 12:43:01;;;;;;;15.15;4.82;;;;;;;;;;5040910;28;20036;-63
2023/03/23 12:45:46;;;;;;;15.40;5.05;;;;;;;;;;5029211;28;20108;-63
2023/03/23 12:48:18;;;;;;;12.93;5.38;;;;;;;;;;5028315;28;20473;-63
2023/03/23 12:50:48;;;;;;;16.10;6.80;;;;;;;;;;5047047;28;20048;-63
2023/03/23 12:53:36;;;;;;;12.95;5.80;;;;;;;;;;5046256;28;20402;-63
2023/03/23 12:56:21;;;;;;;21.23;5.03;;;;;;;;;;5050819;28;20048;-63
2023/03/23 12:58:51;;;;;;;15.80;5.30;;;;;;;;;;5045456;28;20051;-63
2023/03/23 13:01:21;;;;;;;12.73;4.45;;;;;;;;;;5047425;28;20561;-63
2023/03/23 13:03:57;;;;;;;9.50;4.53;;;;;;;;;;5030993;28;20471;-63
2023/03/23 13:06:29;;;;;;;16.85;5.32;;;;;;;;;;5029528;28;20041;-63
2023/03/23 13:09:14;;;;;;;21.77;5.35;;;;;;;;;;5044897;28;20037;-63
2023/03/23 13:11:43;;;;;;;13.00;5.80;;;;;;;;;;5047483;28;20037;-63
2023/03/23 13:14:15;;;;;;;18.27;5.82;;;;;;;;;;5047105;28;20090;-63
2023/03/23 13:16:50;;;;;;;11.57;5.05;;;;;;;;;;5045480;28;20120;-63
2023/03/23 13:19:31;;;;;;;14.85;4.60;;;;;;;;;;5046062;28;20080;-63
2023/03/23 13:22:14;;;;;;;20.33;5.32;;;;;;;;;;5017456;28;20032;-63